Wetterdaten: Woche 17.02.03 - 23.02.03 (KW8)
Datum Zeit Temperatur Luftfeuchte Luftdruck Regenmenge Wind Richtung Taupunkt Windchill
17.02.2003 00:00 -3.5 C 62 % 1028.9 hPa 0.0 l/m 6.4 km/h (2 Bft) O -9.7 C -5.4 C
17.02.2003 01:00 -3.9 C 66 % 1028.9 hPa 0.0 l/m 10.2 km/h (2 Bft) O -9.4 C -7.3 C
17.02.2003 02:00 -3.7 C 62 % 1028.9 hPa 0.0 l/m 7.4 km/h (2 Bft) O-SO -9.9 C -6.3 C
17.02.2003 03:00 -3.9 C 58 % 1028.9 hPa 0.0 l/m 10.9 km/h (2 Bft) O-SO -11.0 C -7.6 C
17.02.2003 04:00 -4.7 C 64 % 1028.9 hPa 0.0 l/m 9.9 km/h (2 Bft) O-SO -10.5 C -8.3 C
17.02.2003 05:00 -5.1 C 64 % 1029.6 hPa 0.0 l/m 8.6 km/h (2 Bft) O -10.7 C -7.9 C
17.02.2003 06:00 -5.2 C 60 % 1029.9 hPa 0.0 l/m 9.0 km/h (2 Bft) SO -11.7 C -8.8 C
17.02.2003 07:00 -5.3 C 58 % 1029.9 hPa 0.0 l/m 14.3 km/h (3 Bft) O-SO -12.3 C -10.3 C
17.02.2003 08:00 -5.3 C 57 % 1030.5 hPa 0.0 l/m 14.0 km/h (3 Bft) O-SO -12.4 C -9.9 C
17.02.2003 09:00 -5.0 C 56 % 1030.2 hPa 0.0 l/m 10.7 km/h (2 Bft) O-SO -12.5 C -9.0 C
17.02.2003 10:00 -4.7 C 54 % 1030.0 hPa 0.0 l/m 16.8 km/h (3 Bft) O-SO -12.6 C -9.9 C
17.02.2003 11:00 -4.1 C 51 % 1030.3 hPa 0.0 l/m 12.6 km/h (3 Bft) O-SO -12.6 C -8.4 C
17.02.2003 12:00 -3.3 C 50 % 1029.9 hPa 0.0 l/m 13.7 km/h (3 Bft) O-SO -12.2 C -7.6 C
17.02.2003 13:00 -1.9 C 47 % 1029.9 hPa 0.0 l/m 16.3 km/h (3 Bft) O-SO -11.7 C -6.9 C
17.02.2003 14:00 -1.3 C 44 % 1029.9 hPa 0.0 l/m 13.6 km/h (3 Bft) O -11.9 C -5.0 C
17.02.2003 15:00 -2.1 C 48 % 1029.9 hPa 0.0 l/m 10.3 km/h (2 Bft) O-SO -11.6 C -5.3 C
17.02.2003 16:00 -2.6 C 48 % 1029.9 hPa 0.0 l/m 4.2 km/h (1 Bft) NO -12.2 C -3.9 C
17.02.2003 17:00 -3.3 C 50 % 1029.9 hPa 0.0 l/m 2.6 km/h (1 Bft) O -12.2 C -4.0 C
17.02.2003 18:00 -3.8 C 52 % 1030.4 hPa 0.0 l/m 1.5 km/h (1 Bft) O-SO -12.3 C -4.2 C
17.02.2003 19:00 -4.5 C 58 % 1030.9 hPa 0.0 l/m 1.2 km/h (1 Bft) O -11.4 C -4.7 C
17.02.2003 20:00 -5.5 C 64 % 1030.8 hPa 0.0 l/m 2.4 km/h (1 Bft) SO -11.2 C -6.4 C
17.02.2003 21:00 -6.0 C 67 % 1029.9 hPa 0.0 l/m 1.4 km/h (1 Bft) SO -11.1 C -6.5 C
17.02.2003 22:00 -7.0 C 70 % 1029.5 hPa 0.0 l/m 0.7 km/h (0 Bft) SO -11.6 C -7.1 C
17.02.2003 23:00 -7.4 C 73 % 1028.9 hPa 0.0 l/m 1.3 km/h (1 Bft) O-SO -11.4 C -8.0 C
18.02.2003 00:00 -6.7 C 69 % 1028.9 hPa 0.0 l/m 3.2 km/h (1 Bft) O-SO -11.5 C -7.7 C
18.02.2003 01:00 -5.5 C 63 % 1028.4 hPa 0.0 l/m 2.8 km/h (1 Bft) O-SO -11.4 C -6.7 C
18.02.2003 02:00 -5.1 C 59 % 1027.9 hPa 0.0 l/m 4.1 km/h (1 Bft) O-NO -11.9 C -6.5 C
18.02.2003 03:00 -5.3 C 58 % 1027.4 hPa 0.0 l/m 5.0 km/h (1 Bft) O-SO -12.1 C -7.3 C
18.02.2003 04:00 -5.7 C 58 % 1026.8 hPa 0.0 l/m 3.7 km/h (1 Bft) O -12.5 C -6.8 C
18.02.2003 05:00 -6.0 C 58 % 1026.8 hPa 0.0 l/m 5.2 km/h (1 Bft) O -12.9 C -7.8 C
18.02.2003 06:00 -6.5 C 60 % 1026.8 hPa 0.0 l/m 3.2 km/h (1 Bft) O -12.9 C -7.6 C
18.02.2003 07:00 -6.8 C 64 % 1026.8 hPa 0.0 l/m 6.3 km/h (2 Bft) O -12.5 C -9.0 C
18.02.2003 08:00 -6.8 C 64 % 1026.8 hPa 0.0 l/m 4.9 km/h (1 Bft) O -12.5 C -8.4 C
18.02.2003 09:00 -6.4 C 65 % 1026.8 hPa 0.0 l/m 4.4 km/h (1 Bft) O-SO -11.8 C -8.1 C
18.02.2003 10:00 -5.7 C 59 % 1026.8 hPa 0.0 l/m 5.7 km/h (1 Bft) O-SO -12.4 C -7.9 C
18.02.2003 11:00 -5.0 C 55 % 1026.8 hPa 0.0 l/m 5.2 km/h (1 Bft) O-SO -12.7 C -7.0 C
18.02.2003 12:00 -4.5 C 55 % 1026.1 hPa 0.0 l/m 12.5 km/h (3 Bft) SO -12.0 C -8.7 C
18.02.2003 13:00 -3.3 C 56 % 1025.7 hPa 0.0 l/m 20.1 km/h (4 Bft) SO -10.8 C -9.4 C
18.02.2003 14:00 -2.9 C 57 % 1024.8 hPa 0.0 l/m 24.7 km/h (4 Bft) SO -10.1 C -9.6 C
18.02.2003 15:00 -2.8 C 58 % 1024.2 hPa 0.0 l/m 24.3 km/h (4 Bft) SO -9.9 C -9.3 C
18.02.2003 16:00 -3.2 C 58 % 1023.7 hPa 0.0 l/m 19.0 km/h (3 Bft) SO -10.1 C -9.0 C
18.02.2003 17:00 -4.2 C 63 % 1023.7 hPa 0.0 l/m 11.5 km/h (2 Bft) SO -10.1 C -8.7 C
18.02.2003 18:00 -5.8 C 68 % 1023.7 hPa 0.0 l/m 4.7 km/h (1 Bft) O-SO -10.7 C -7.7 C
18.02.2003 19:00 -6.9 C 72 % 1023.8 hPa 0.0 l/m 1.7 km/h (1 Bft) O-SO -11.1 C -7.7 C
18.02.2003 20:00 -7.6 C 75 % 1023.7 hPa 0.0 l/m 3.3 km/h (1 Bft) SO -11.3 C -9.2 C
18.02.2003 21:00 -8.5 C 79 % 1023.7 hPa 0.0 l/m 0.5 km/h (0 Bft) S -11.5 C -8.7 C
18.02.2003 22:00 -8.9 C 78 % 1023.7 hPa 0.0 l/m 0.1 km/h (0 Bft) N -12.0 C -8.9 C
18.02.2003 23:00 -9.6 C 79 % 1022.7 hPa 0.0 l/m 1.3 km/h (1 Bft) S -12.6 C -10.1 C
19.02.2003 00:00 -10.3 C 79 % 1022.7 hPa 0.0 l/m 1.2 km/h (1 Bft) S -13.1 C -10.5 C
19.02.2003 01:00 -10.5 C 80 % 1022.7 hPa 0.0 l/m 3.0 km/h (1 Bft) S -13.3 C -11.5 C
19.02.2003 02:00 -11.0 C 80 % 1022.7 hPa 0.0 l/m 1.9 km/h (1 Bft) S -13.8 C -11.4 C
19.02.2003 03:00 -11.4 C 79 % 1022.7 hPa 0.0 l/m 2.4 km/h (1 Bft) SO -14.3 C -12.3 C
19.02.2003 04:00 -11.7 C 78 % 1021.7 hPa 0.0 l/m 0.7 km/h (0 Bft) SO -14.7 C -11.7 C
19.02.2003 05:00 -12.1 C 77 % 1021.6 hPa 0.0 l/m 0.0 km/h (0 Bft) N -15.3 C -12.1 C
19.02.2003 06:00 -12.1 C 78 % 1021.6 hPa 0.0 l/m 0.0 km/h (0 Bft) N -15.2 C -12.1 C
19.02.2003 07:00 -12.1 C 77 % 1021.6 hPa 0.0 l/m 0.0 km/h (0 Bft) N -15.3 C -12.1 C
19.02.2003 08:00 -10.2 C 76 % 1021.6 hPa 0.0 l/m 0.0 km/h (0 Bft) SO -13.6 C -10.2 C
19.02.2003 09:00 -7.6 C 64 % 1021.6 hPa 0.0 l/m 7.3 km/h (2 Bft) SO -13.2 C -11.0 C
19.02.2003 10:00 -6.2 C 59 % 1020.7 hPa 0.0 l/m 5.5 km/h (1 Bft) SO -13.0 C -8.4 C
19.02.2003 11:00 -4.3 C 55 % 1019.9 hPa 0.0 l/m 15.2 km/h (3 Bft) SO -11.9 C -9.7 C
19.02.2003 12:00 -3.4 C 54 % 1019.4 hPa 0.0 l/m 21.0 km/h (4 Bft) SO -11.3 C -9.6 C
19.02.2003 13:00 -2.3 C 54 % 1018.5 hPa 0.0 l/m 19.2 km/h (3 Bft) SO -10.3 C -8.0 C
19.02.2003 14:00 -1.6 C 55 % 1018.1 hPa 0.0 l/m 17.3 km/h (3 Bft) SO -9.5 C -6.5 C
19.02.2003 15:00 -1.3 C 54 % 1017.5 hPa 0.0 l/m 19.6 km/h (3 Bft) SO -9.5 C -6.8 C
19.02.2003 16:00 -1.7 C 54 % 1016.9 hPa 0.0 l/m 13.0 km/h (3 Bft) SO -9.8 C -6.0 C
19.02.2003 17:00 -2.9 C 57 % 1016.4 hPa 0.0 l/m 7.9 km/h (2 Bft) O-SO -10.3 C -5.7 C
19.02.2003 18:00 -4.7 C 67 % 1016.4 hPa 0.0 l/m 7.3 km/h (2 Bft) O-SO -10.0 C -7.6 C
19.02.2003 19:00 -5.9 C 73 % 1016.4 hPa 0.0 l/m 3.2 km/h (1 Bft) O-SO -10.0 C -6.8 C
19.02.2003 20:00 -6.6 C 75 % 1016.0 hPa 0.0 l/m 4.6 km/h (1 Bft) SO -10.3 C -8.7 C
19.02.2003 21:00 -7.4 C 77 % 1016.1 hPa 0.0 l/m 8.0 km/h (2 Bft) O-SO -10.7 C -11.3 C
19.02.2003 22:00 -7.8 C 78 % 1016.4 hPa 0.0 l/m 8.6 km/h (2 Bft) O-SO -11.0 C -12.1 C
19.02.2003 23:00 -8.4 C 79 % 1015.4 hPa 0.0 l/m 6.6 km/h (2 Bft) O-SO -11.4 C -12.0 C
20.02.2003 00:00 -8.9 C 81 % 1016.1 hPa 0.0 l/m 7.8 km/h (2 Bft) O-SO -11.5 C -13.0 C
20.02.2003 01:00 -9.2 C 81 % 1016.4 hPa 0.0 l/m 8.1 km/h (2 Bft) O-SO -11.8 C -13.5 C
20.02.2003 02:00 -9.8 C 81 % 1016.4 hPa 0.0 l/m 7.2 km/h (2 Bft) O-SO -12.4 C -13.6 C
20.02.2003 03:00 -10.1 C 82 % 1016.4 hPa 0.0 l/m 4.0 km/h (1 Bft) SO -12.6 C -12.3 C
20.02.2003 04:00 -10.9 C 80 % 1016.1 hPa 0.0 l/m 3.4 km/h (1 Bft) SO -13.6 C -12.6 C
20.02.2003 05:00 -11.0 C 80 % 1016.2 hPa 0.0 l/m 5.1 km/h (1 Bft) O-SO -13.7 C -13.8 C
20.02.2003 06:00 -10.5 C 82 % 1016.4 hPa 0.0 l/m 6.1 km/h (2 Bft) O-SO -13.0 C -13.3 C
20.02.2003 07:00 -9.6 C 83 % 1016.4 hPa 0.0 l/m 5.4 km/h (1 Bft) O-SO -12.1 C -12.2 C
20.02.2003 08:00 -8.6 C 81 % 1017.4 hPa 0.0 l/m 0.2 km/h (0 Bft) O-SO -11.3 C -8.6 C
20.02.2003 09:00 -7.5 C 74 % 1016.6 hPa 0.0 l/m 3.5 km/h (1 Bft) SO -11.3 C -9.1 C
20.02.2003 10:00 -6.0 C 71 % 1016.4 hPa 0.0 l/m 6.2 km/h (2 Bft) SO -10.3 C -8.3 C
20.02.2003 11:00 -5.1 C 69 % 1016.4 hPa 0.0 l/m 6.8 km/h (2 Bft) O-SO -9.9 C -7.9 C
20.02.2003 12:00 -4.0 C 65 % 1016.4 hPa 0.0 l/m 10.5 km/h (2 Bft) O-SO -9.5 C -8.0 C
20.02.2003 13:00 -2.2 C 64 % 1016.1 hPa 0.0 l/m 5.0 km/h (1 Bft) SO -8.2 C -4.1 C
20.02.2003 14:00 -1.1 C 62 % 1015.4 hPa 0.0 l/m 10.0 km/h (2 Bft) SO -7.5 C -4.4 C
20.02.2003 15:00 -0.7 C 61 % 1015.4 hPa 0.0 l/m 9.1 km/h (2 Bft) SO -7.2 C -3.6 C
20.02.2003 16:00 -1.0 C 62 % 1015.4 hPa 0.0 l/m 7.2 km/h (2 Bft) O-SO -7.3 C -3.3 C
20.02.2003 17:00 -2.3 C 65 % 1015.8 hPa 0.0 l/m 5.2 km/h (1 Bft) SO -7.9 C -4.1 C
20.02.2003 18:00 -3.9 C 73 % 1016.4 hPa 0.0 l/m 4.7 km/h (1 Bft) O-SO -8.0 C -5.4 C
20.02.2003 19:00 -4.9 C 79 % 1017.5 hPa 0.0 l/m 1.0 km/h (0 Bft) O-SO -7.9 C -5.1 C
20.02.2003 20:00 -5.7 C 82 % 1017.9 hPa 0.0 l/m 0.3 km/h (0 Bft) O-SO -8.2 C -5.7 C
20.02.2003 21:00 -6.7 C 85 % 1018.5 hPa 0.0 l/m 0.8 km/h (0 Bft) O-SO -8.8 C -6.8 C
20.02.2003 22:00 -7.2 C 85 % 1018.5 hPa 0.0 l/m 2.0 km/h (1 Bft) O-SO -9.2 C -7.6 C
20.02.2003 23:00 -7.9 C 83 % 1018.5 hPa 0.0 l/m 0.7 km/h (0 Bft) O-SO -10.3 C -8.1 C
21.02.2003 00:00 -8.3 C 84 % 1019.1 hPa 0.0 l/m 0.3 km/h (0 Bft) O-SO -10.6 C -8.3 C
21.02.2003 01:00 -8.7 C 83 % 1019.6 hPa 0.0 l/m 0.0 km/h (0 Bft) N -11.1 C -8.7 C
21.02.2003 02:00 -9.4 C 82 % 1019.6 hPa 0.0 l/m 0.0 km/h (0 Bft) N -11.8 C -9.4 C
21.02.2003 03:00 -9.7 C 82 % 1020.4 hPa 0.0 l/m 0.0 km/h (0 Bft) N -12.2 C -9.7 C
21.02.2003 04:00 -10.2 C 81 % 1020.6 hPa 0.0 l/m 0.0 km/h (0 Bft) N -12.9 C -10.2 C
21.02.2003 05:00 -10.3 C 81 % 1020.6 hPa 0.0 l/m 1.6 km/h (1 Bft) O-SO -12.9 C -11.1 C
21.02.2003 06:00 -10.4 C 81 % 1020.6 hPa 0.0 l/m 1.4 km/h (1 Bft) O-SO -13.0 C -10.7 C
21.02.2003 07:00 -9.0 C 84 % 1021.3 hPa 0.0 l/m 0.0 km/h (0 Bft) N -11.2 C -9.0 C
21.02.2003 08:00 -8.2 C 85 % 1022.1 hPa 0.0 l/m 1.8 km/h (1 Bft) O-SO -10.3 C -8.5 C
21.02.2003 09:00 -6.9 C 81 % 1022.7 hPa 0.0 l/m 0.5 km/h (0 Bft) O-SO -9.6 C -6.9 C
21.02.2003 10:00 -5.4 C 78 % 1022.7 hPa 0.0 l/m 3.8 km/h (1 Bft) SO -8.7 C -6.8 C
21.02.2003 11:00 -3.2 C 74 % 1022.7 hPa 0.0 l/m 4.7 km/h (1 Bft) SO -7.2 C -4.7 C
21.02.2003 12:00 -1.1 C 65 % 1022.7 hPa 0.0 l/m 3.6 km/h (1 Bft) SO -6.9 C -2.1 C
21.02.2003 13:00 1.0 C 60 % 1022.7 hPa 0.0 l/m 1.6 km/h (1 Bft) W-NW -5.9 C 0.8 C
21.02.2003 14:00 2.4 C 57 % 1022.7 hPa 0.0 l/m 5.6 km/h (1 Bft) SO -5.4 C 1.0 C
21.02.2003 15:00 2.9 C 54 % 1022.7 hPa 0.0 l/m 8.2 km/h (2 Bft) O-SO -5.5 C 0.7 C
21.02.2003 16:00 2.3 C 56 % 1022.7 hPa 0.0 l/m 7.9 km/h (2 Bft) O-SO -5.7 C 0.0 C
21.02.2003 17:00 0.5 C 62 % 1022.9 hPa 0.0 l/m 13.5 km/h (3 Bft) O-SO -5.9 C -3.5 C
21.02.2003 18:00 -1.4 C 70 % 1023.7 hPa 0.0 l/m 6.5 km/h (2 Bft) O-SO -6.2 C -3.4 C
21.02.2003 19:00 -2.7 C 78 % 1024.4 hPa 0.0 l/m 1.1 km/h (0 Bft) O-SO -6.0 C -3.1 C
21.02.2003 20:00 -4.2 C 82 % 1024.8 hPa 0.0 l/m 0.0 km/h (0 Bft) N -6.8 C -4.2 C
21.02.2003 21:00 -4.6 C 87 % 1024.8 hPa 0.0 l/m 0.0 km/h (0 Bft) N -6.5 C -4.6 C
21.02.2003 22:00 -5.3 C 87 % 1025.8 hPa 0.0 l/m 0.0 km/h (0 Bft) N -7.1 C -5.3 C
21.02.2003 23:00 -5.6 C 86 % 1025.8 hPa 0.0 l/m 0.0 km/h (0 Bft) N -7.5 C -5.6 C
22.02.2003 00:00 -6.1 C 87 % 1025.8 hPa 0.0 l/m 0.0 km/h (0 Bft) N -8.0 C -6.1 C
22.02.2003 01:00 -6.4 C 87 % 1025.9 hPa 0.0 l/m 0.1 km/h (0 Bft) SO -8.2 C -6.4 C
22.02.2003 02:00 -5.6 C 89 % 1026.7 hPa 0.0 l/m 8.8 km/h (2 Bft) O-SO -7.2 C -9.2 C
22.02.2003 03:00 -5.1 C 90 % 1026.8 hPa 0.0 l/m 14.7 km/h (3 Bft) O-SO -6.5 C -10.6 C
22.02.2003 04:00 -5.2 C 89 % 1026.8 hPa 0.0 l/m 4.7 km/h (1 Bft) O-SO -6.7 C -7.0 C
22.02.2003 05:00 -5.2 C 90 % 1027.7 hPa 0.0 l/m 1.1 km/h (0 Bft) SO -6.6 C -5.6 C
22.02.2003 06:00 -5.2 C 89 % 1027.9 hPa 0.0 l/m 0.1 km/h (0 Bft) N -6.7 C -5.2 C
22.02.2003 07:00 -5.0 C 90 % 1027.9 hPa 0.0 l/m 1.9 km/h (1 Bft) O-SO -6.4 C -5.8 C
22.02.2003 08:00 -4.8 C 88 % 1028.5 hPa 0.0 l/m 3.2 km/h (1 Bft) SO -6.5 C -6.1 C
22.02.2003 09:00 -4.4 C 83 % 1028.9 hPa 0.0 l/m 0.4 km/h (0 Bft) NO -6.8 C -4.5 C
22.02.2003 10:00 -4.0 C 79 % 1028.9 hPa 0.0 l/m 0.1 km/h (0 Bft) N -7.1 C -4.0 C
22.02.2003 11:00 -3.2 C 76 % 1028.9 hPa 0.0 l/m 0.3 km/h (0 Bft) NO -6.8 C -3.2 C
22.02.2003 12:00 -2.0 C 73 % 1028.6 hPa 0.0 l/m 3.6 km/h (1 Bft) SO -6.2 C -3.2 C
22.02.2003 13:00 -0.8 C 68 % 1027.9 hPa 0.0 l/m 2.4 km/h (1 Bft) SO -5.9 C -1.5 C
22.02.2003 14:00 0.2 C 68 % 1027.6 hPa 0.0 l/m 1.9 km/h (1 Bft) S-SO -4.9 C -0.3 C
22.02.2003 15:00 0.8 C 67 % 1027.0 hPa 0.0 l/m 1.8 km/h (1 Bft) SO -4.6 C 0.3 C
22.02.2003 16:00 0.5 C 69 % 1026.8 hPa 0.0 l/m 2.3 km/h (1 Bft) SO -4.4 C -0.1 C
22.02.2003 17:00 -0.9 C 74 % 1027.4 hPa 0.0 l/m 4.5 km/h (1 Bft) O-SO -5.0 C -2.3 C
22.02.2003 18:00 -2.7 C 80 % 1027.9 hPa 0.0 l/m 2.4 km/h (1 Bft) SO -5.7 C -3.3 C
22.02.2003 19:00 -3.5 C 86 % 1028.4 hPa 0.0 l/m 0.0 km/h (0 Bft) N -5.4 C -3.5 C
22.02.2003 20:00 -4.4 C 87 % 1028.9 hPa 0.0 l/m 0.0 km/h (0 Bft) N -6.2 C -4.4 C
22.02.2003 21:00 -5.1 C 87 % 1028.9 hPa 0.0 l/m 0.5 km/h (0 Bft) SO -6.9 C -5.1 C
22.02.2003 22:00 -5.7 C 88 % 1029.4 hPa 0.0 l/m 0.9 km/h (0 Bft) SO -7.4 C -5.8 C
22.02.2003 23:00 -6.4 C 87 % 1029.9 hPa 0.0 l/m 0.0 km/h (0 Bft) N -8.2 C -6.4 C
23.02.2003 00:00 -6.8 C 86 % 1030.2 hPa 0.0 l/m 0.0 km/h (0 Bft) N -8.7 C -6.8 C
23.02.2003 01:00 -7.3 C 86 % 1031.0 hPa 0.0 l/m 0.0 km/h (0 Bft) N -9.2 C -7.3 C
23.02.2003 02:00 -6.7 C 87 % 1031.0 hPa 0.0 l/m 0.0 km/h (0 Bft) N -8.4 C -6.7 C
23.02.2003 03:00 -5.8 C 89 % 1031.4 hPa 0.0 l/m 0.0 km/h (0 Bft) N -7.3 C -5.8 C
23.02.2003 04:00 -5.0 C 90 % 1032.0 hPa 0.0 l/m 0.4 km/h (0 Bft) SO -6.5 C -5.2 C
23.02.2003 05:00 -4.8 C 91 % 1032.0 hPa 0.0 l/m 0.3 km/h (0 Bft) O -6.0 C -4.9 C
23.02.2003 06:00 -4.8 C 92 % 1032.1 hPa 0.0 l/m 0.0 km/h (0 Bft) N -5.9 C -4.8 C
23.02.2003 07:00 -4.8 C 91 % 1033.1 hPa 0.0 l/m 0.1 km/h (0 Bft) O -6.1 C -4.8 C
23.02.2003 08:00 -4.6 C 89 % 1033.4 hPa 0.0 l/m 0.3 km/h (0 Bft) N -6.2 C -4.7 C
23.02.2003 09:00 -4.1 C 87 % 1034.1 hPa 0.0 l/m 1.1 km/h (1 Bft) O-SO -6.0 C -4.4 C
23.02.2003 10:00 -3.5 C 83 % 1034.1 hPa 0.0 l/m 0.4 km/h (0 Bft) O-SO -6.0 C -3.6 C
23.02.2003 11:00 -2.5 C 78 % 1033.9 hPa 0.0 l/m 1.2 km/h (1 Bft) SO -5.8 C -3.0 C
23.02.2003 12:00 -0.7 C 71 % 1033.1 hPa 0.0 l/m 1.8 km/h (1 Bft) SO -5.3 C -1.0 C
23.02.2003 13:00 0.4 C 69 % 1033.1 hPa 0.0 l/m 1.1 km/h (0 Bft) NW -4.6 C 0.2 C
23.02.2003 14:00 1.8 C 69 % 1032.2 hPa 0.0 l/m 1.9 km/h (1 Bft) NW -3.2 C 1.4 C
23.02.2003 15:00 2.9 C 65 % 1032.0 hPa 0.0 l/m 5.1 km/h (1 Bft) W-NW -3.1 C 1.6 C
23.02.2003 16:00 2.7 C 66 % 1032.0 hPa 0.0 l/m 2.0 km/h (1 Bft) W-NW -3.0 C 2.1 C
23.02.2003 17:00 1.3 C 71 % 1032.0 hPa 0.0 l/m 2.1 km/h (1 Bft) S -3.3 C 0.9 C
23.02.2003 18:00 -0.4 C 75 % 1032.3 hPa 0.0 l/m 5.3 km/h (1 Bft) SO -4.3 C -2.0 C
23.02.2003 19:00 -2.0 C 83 % 1033.1 hPa 0.0 l/m 0.0 km/h (0 Bft) N -4.5 C -2.0 C
23.02.2003 20:00 -3.3 C 87 % 1033.1 hPa 0.0 l/m 0.0 km/h (0 Bft) N -5.1 C -3.3 C
23.02.2003 21:00 -3.9 C 90 % 1033.1 hPa 0.0 l/m 0.0 km/h (0 Bft) N -5.3 C -3.9 C
23.02.2003 22:00 -4.5 C 90 % 1033.1 hPa 0.0 l/m 1.7 km/h (1 Bft) O-SO -5.9 C -5.1 C
23.02.2003 23:00 -5.1 C 88 % 1033.1 hPa 0.0 l/m 0.0 km/h (0 Bft) N -6.7 C -5.1 C
Min-Datum _ 19.02.03 17.02.03 20.02.03 - 17.02.03 - 19.02.03 20.02.03
_ Min-Zeit 06:37 14:23 14:00 - 00:29 - 07:46 06:47
Minimum _ -12.5 C 42 % 1015.4 hPa - 0.0 km/h (0 Bft) - -15.7 C -16.0 C
Max-Datum _ 23.02.03 23.02.03 23.02.03 17.02.03 17.02.03 - 23.02.03 23.02.03
_ Max-Zeit 15:32 04:41 08:32 00:02 10:41 - 15:32 15:38
Maximum _ 3.1 C 92 % 1034.1 hPa 0.0 l/m 35.8 km/h
O-SO (5 Bft)
- -2.6 C 3.1 C
Durchschnitt _ -5.0 C 72 % 1024.9 hPa #0.0 l/m 4.9 km/h (1 Bft) O-SO -9.4 C -6.7 C

Durchschnitt Minimum Temp.-5.7 C
Durchschnitt Maximum Temp.-4.4 C
© Kaiko 2003